Time;durP1;ratioP1;P1;durP2;ratioP2;P2;SDS_P1;SDS_P2;PMS_P1;PMS_P2;Temp;Humidity;BMP_temperature;BMP_pressure;BME280_temperature;BME280_humidity;BME280_pressure;Samples;Min_cycle;Max_cycle;Signal;HPM_P1;HPM_P2
2023/12/15 00:01:19;;;;;;;35.40;19.73;;;;;;;-145.18;100.00;46668.22;5100344;28;20062;-67
2023/12/15 00:03:44;;;;;;;45.83;19.07;;;;;;;-145.18;100.00;46668.22;5087902;28;20251;-67
2023/12/15 00:06:10;;;;;;;38.13;18.40;;;;;;;-145.18;100.00;46668.22;5083667;28;20016;-66
2023/12/15 00:08:35;;;;;;;38.07;19.67;;;;;;;-145.18;100.00;46670.16;5071654;28;20028;-66
2023/12/15 00:11:01;;;;;;;42.50;19.20;;;;;;;-145.18;100.00;46666.25;5071174;28;20047;-67
2023/12/15 00:13:26;;;;;;;39.20;20.67;;;;;;;-145.18;100.00;46662.34;5071884;28;20104;-66
2023/12/15 00:15:53;;;;;;;42.03;19.43;;;;;;;-145.18;100.00;46664.31;5074601;28;20090;-67
2023/12/15 00:18:18;;;;;;;38.07;18.60;;;;;;;-145.18;100.00;46664.31;5081521;28;20055;-66
2023/12/15 00:20:44;;;;;;;38.00;20.27;;;;;;;-145.18;100.00;46664.31;5072358;28;20262;-66
2023/12/15 00:23:09;;;;;;;40.67;19.87;;;;;;;-145.18;100.00;46666.25;5079714;28;20035;-66
2023/12/15 00:25:34;;;;;;;39.33;20.20;;;;;;;-145.18;100.00;46662.34;5074590;28;20024;-67
2023/12/15 00:28:00;;;;;;;36.73;18.80;;;;;;;-145.18;100.00;46670.16;5072248;28;20032;-67
2023/12/15 00:30:25;;;;;;;38.43;19.40;;;;;;;-145.18;100.00;46662.34;5074994;28;20020;-66
2023/12/15 00:32:51;;;;;;;39.43;20.80;;;;;;;-145.18;100.00;46658.44;5093230;28;20391;-73
2023/12/15 00:35:16;;;;;;;36.53;17.03;;;;;;;-145.18;100.00;46660.41;5072021;28;20074;-73
2023/12/15 00:37:42;;;;;;;49.90;21.20;;;;;;;-145.18;100.00;46660.41;5072008;28;20476;-73
2023/12/15 00:40:10;;;;;;;47.80;20.03;;;;;;;-145.18;100.00;46658.44;5077964;28;20099;-74
2023/12/15 00:42:35;;;;;;;38.27;22.10;;;;;;;-145.18;100.00;46660.41;5090734;28;20176;-73
2023/12/15 00:45:01;;;;;;;39.03;20.13;;;;;;;-145.18;100.00;46662.34;5080333;28;20287;-73
2023/12/15 00:47:26;;;;;;;46.33;22.13;;;;;;;-145.18;100.00;46654.53;5076037;28;20047;-73
2023/12/15 00:49:52;;;;;;;50.97;22.23;;;;;;;-145.18;100.00;46664.31;5088029;28;20016;-74
2023/12/15 00:52:18;;;;;;;54.03;22.77;;;;;;;-145.18;100.00;46656.50;5075373;28;20032;-74
2023/12/15 00:54:43;;;;;;;45.10;21.63;;;;;;;-145.18;100.00;46664.31;5081814;28;20024;-74
2023/12/15 00:57:08;;;;;;;57.93;22.67;;;;;;;-145.18;100.00;46660.41;5080323;28;20033;-73
2023/12/15 00:59:34;;;;;;;45.90;22.93;;;;;;;-145.18;100.00;46658.44;5078038;28;20493;-73
2023/12/15 01:01:59;;;;;;;56.67;24.63;;;;;;;-145.18;100.00;46660.41;5092185;28;20024;-74
2023/12/15 01:04:24;;;;;;;41.93;20.60;;;;;;;-145.18;100.00;46656.50;5079979;28;20074;-73
2023/12/15 01:06:50;;;;;;;51.13;23.87;;;;;;;-145.18;100.00;46654.53;5094807;28;20112;-73
2023/12/15 01:09:15;;;;;;;58.50;26.77;;;;;;;-145.18;100.00;46656.50;5078407;28;20036;-73
2023/12/15 01:11:41;;;;;;;54.77;23.97;;;;;;;-145.18;100.00;46656.50;5082852;28;20032;-73
2023/12/15 01:14:06;;;;;;;51.73;23.37;;;;;;;-145.18;100.00;46658.44;5091262;28;20482;-74
2023/12/15 01:16:31;;;;;;;52.80;24.57;;;;;;;-145.18;100.00;46656.50;5082710;28;20028;-73
2023/12/15 01:18:57;;;;;;;60.13;23.30;;;;;;;-145.18;100.00;46652.59;5088723;28;20064;-73
2023/12/15 01:21:22;;;;;;;53.90;24.07;;;;;;;-145.18;100.00;46656.50;5079524;28;20024;-73
2023/12/15 01:23:48;;;;;;;58.17;25.23;;;;;;;-145.18;100.00;46654.53;5075113;28;20074;-73
2023/12/15 01:26:13;;;;;;;52.83;24.83;;;;;;;-145.18;100.00;46656.50;5084486;28;20064;-73
2023/12/15 01:28:38;;;;;;;54.40;24.00;;;;;;;-145.18;100.00;46656.50;5087784;28;20031;-74
2023/12/15 01:31:04;;;;;;;59.27;24.97;;;;;;;-145.18;100.00;46658.44;5087595;28;20064;-74
2023/12/15 01:33:30;;;;;;;61.63;24.77;;;;;;;-145.18;100.00;46654.53;5086868;28;20039;-73
2023/12/15 01:35:55;;;;;;;65.33;26.73;;;;;;;-145.18;100.00;46652.59;5090746;28;20785;-74
2023/12/15 01:38:21;;;;;;;58.73;24.90;;;;;;;-145.18;100.00;46656.50;5073099;28;20492;-73
2023/12/15 01:40:46;;;;;;;59.07;25.83;;;;;;;-145.18;100.00;46660.41;5087941;28;20036;-73
2023/12/15 01:43:12;;;;;;;59.40;27.10;;;;;;;-145.18;100.00;46658.44;5081159;28;20528;-66
2023/12/15 01:45:37;;;;;;;52.77;25.37;;;;;;;-145.18;100.00;46656.50;5083209;28;20028;-66
2023/12/15 01:48:03;;;;;;;60.53;25.90;;;;;;;-145.18;100.00;46654.53;5085422;28;20055;-66
2023/12/15 01:50:28;;;;;;;67.93;26.33;;;;;;;-145.18;100.00;46656.50;5086308;28;20020;-66
2023/12/15 01:52:54;;;;;;;56.67;25.47;;;;;;;-145.18;100.00;46654.53;5073961;28;20028;-67
2023/12/15 01:55:19;;;;;;;59.07;27.17;;;;;;;-145.18;100.00;46656.50;5074575;28;20085;-67
2023/12/15 01:57:44;;;;;;;63.43;25.63;;;;;;;-145.18;100.00;46662.34;5072521;28;20032;-67
2023/12/15 02:00:11;;;;;;;61.27;26.10;;;;;;;-145.18;100.00;46656.50;5089745;28;20833;-66
2023/12/15 02:02:36;;;;;;;67.90;27.10;;;;;;;-145.18;100.00;46656.50;5085900;28;20032;-67
2023/12/15 02:05:02;;;;;;;58.13;25.20;;;;;;;-145.18;100.00;46656.50;5073285;28;20276;-67
2023/12/15 02:07:28;;;;;;;67.87;26.27;;;;;;;-145.18;100.00;46658.44;5083098;28;20121;-67
2023/12/15 02:09:54;;;;;;;59.17;26.43;;;;;;;-145.18;100.00;46658.44;5073416;28;20021;-67
2023/12/15 02:12:20;;;;;;;69.13;27.63;;;;;;;-145.18;100.00;46654.53;5090585;28;20245;-67
2023/12/15 02:14:45;;;;;;;69.30;27.77;;;;;;;-145.18;100.00;46658.44;5085879;28;20272;-67
2023/12/15 02:17:12;;;;;;;63.83;27.90;;;;;;;-145.18;100.00;46654.53;5073353;28;20048;-67
2023/12/15 02:19:37;;;;;;;62.53;27.00;;;;;;;-145.18;100.00;46658.44;5073350;28;20067;-67
2023/12/15 02:22:03;;;;;;;74.67;30.33;;;;;;;-145.18;100.00;46652.59;5081343;28;20296;-67
2023/12/15 02:24:28;;;;;;;68.40;27.73;;;;;;;-145.18;100.00;46656.50;5087797;28;20403;-66
2023/12/15 02:26:54;;;;;;;63.10;26.90;;;;;;;-145.18;100.00;46662.34;5077737;28;20029;-66
2023/12/15 02:29:19;;;;;;;66.57;28.20;;;;;;;-145.18;100.00;46658.44;5074270;28;20480;-67
2023/12/15 02:31:45;;;;;;;66.90;28.43;;;;;;;-145.18;100.00;46658.44;5078078;28;20385;-67
2023/12/15 02:34:11;;;;;;;63.20;26.13;;;;;;;-145.18;100.00;46654.53;5077664;28;20114;-67
2023/12/15 02:36:36;;;;;;;69.77;28.67;;;;;;;-145.18;100.00;46662.34;5076744;28;20047;-67
2023/12/15 02:39:02;;;;;;;70.97;27.80;;;;;;;-145.18;100.00;46656.50;5072651;28;20476;-67
2023/12/15 02:41:29;;;;;;;63.83;28.03;;;;;;;-145.18;100.00;46654.53;5084313;28;20463;-67
2023/12/15 02:43:55;;;;;;;67.37;28.00;;;;;;;-145.18;100.00;46652.59;5074668;28;20257;-67
2023/12/15 02:46:20;;;;;;;75.03;28.93;;;;;;;-145.18;100.00;46654.53;5072919;28;20330;-67
2023/12/15 02:48:46;;;;;;;73.40;30.17;;;;;;;-145.18;100.00;46656.50;5082955;28;20024;-67
2023/12/15 02:51:11;;;;;;;71.20;28.27;;;;;;;-145.18;100.00;46652.59;5080065;28;20123;-66
2023/12/15 02:53:37;;;;;;;71.57;29.13;;;;;;;-145.18;100.00;46656.50;5073517;28;20025;-73
2023/12/15 02:56:03;;;;;;;72.63;27.10;;;;;;;-145.18;100.00;46654.53;5073320;28;20035;-73
2023/12/15 02:58:28;;;;;;;68.00;27.10;;;;;;;-145.18;100.00;46654.53;5092186;28;20256;-73
2023/12/15 03:00:54;;;;;;;65.07;26.60;;;;;;;-145.18;100.00;46654.53;5079231;28;20051;-73
2023/12/15 03:03:19;;;;;;;74.00;28.47;;;;;;;-145.18;100.00;46658.44;5079288;28;20032;-73
2023/12/15 03:05:45;;;;;;;73.33;31.00;;;;;;;-145.18;100.00;46658.44;5076910;28;20055;-73
2023/12/15 03:08:10;;;;;;;81.03;28.83;;;;;;;-145.18;100.00;46658.44;5086854;28;20104;-73
2023/12/15 03:10:36;;;;;;;74.90;29.30;;;;;;;-145.18;100.00;46652.59;5076937;28;20024;-73
2023/12/15 03:13:01;;;;;;;77.27;28.80;;;;;;;-145.18;100.00;46652.59;5074021;28;20032;-73
2023/12/15 03:15:27;;;;;;;75.73;30.10;;;;;;;-145.18;100.00;46654.53;5086071;28;20028;-73
2023/12/15 03:17:52;;;;;;;70.93;29.00;;;;;;;-145.18;100.00;46654.53;5085970;28;20412;-73
2023/12/15 03:20:18;;;;;;;80.60;29.77;;;;;;;-145.18;100.00;46652.59;5071720;28;20277;-73
2023/12/15 03:22:43;;;;;;;77.33;31.67;;;;;;;-145.18;100.00;46654.53;5083193;28;20040;-73
2023/12/15 03:25:09;;;;;;;69.00;28.47;;;;;;;-145.18;100.00;46650.63;5089096;28;20035;-73
2023/12/15 03:27:34;;;;;;;75.63;30.10;;;;;;;-145.18;100.00;46652.59;5088075;28;20528;-73
2023/12/15 03:30:00;;;;;;;80.83;29.73;;;;;;;-145.18;100.00;46654.53;5076406;28;20020;-73
2023/12/15 03:32:25;;;;;;;83.73;30.20;;;;;;;-145.18;100.00;46656.50;5079107;28;20028;-73
2023/12/15 03:34:51;;;;;;;79.27;30.90;;;;;;;-145.18;100.00;46654.53;5071764;28;20477;-73
2023/12/15 03:37:16;;;;;;;81.13;30.20;;;;;;;-145.18;100.00;46650.63;5083639;28;20036;-74
2023/12/15 03:39:42;;;;;;;77.70;29.67;;;;;;;-145.18;100.00;46652.59;5074279;28;20037;-73
2023/12/15 03:42:08;;;;;;;77.53;29.77;;;;;;;-145.18;100.00;46652.59;5081061;28;20059;-71
2023/12/15 03:44:33;;;;;;;84.30;31.20;;;;;;;-145.18;100.00;46658.44;5084967;28;20073;-73
2023/12/15 03:47:00;;;;;;;74.10;30.20;;;;;;;-145.18;100.00;46658.44;5072103;28;20028;-74
2023/12/15 03:49:25;;;;;;;69.83;30.73;;;;;;;-145.18;100.00;46646.72;5073186;28;20524;-73
2023/12/15 03:51:50;;;;;;;71.40;30.13;;;;;;;-145.18;100.00;46654.53;5074346;28;20383;-73
2023/12/15 03:54:16;;;;;;;68.20;28.77;;;;;;;-145.18;100.00;46654.53;5086987;28;20113;-73
2023/12/15 03:56:41;;;;;;;76.90;29.00;;;;;;;-145.18;100.00;46656.50;5073085;28;20035;-73
2023/12/15 03:59:07;;;;;;;74.87;27.73;;;;;;;-145.18;100.00;46658.44;5071957;28;20162;-73
2023/12/15 04:01:32;;;;;;;75.07;30.50;;;;;;;-145.18;100.00;46654.53;5100322;28;20035;-73
2023/12/15 04:03:58;;;;;;;71.60;27.60;;;;;;;-145.18;100.00;46652.59;5080177;28;20399;-73
2023/12/15 04:06:24;;;;;;;78.10;29.67;;;;;;;-145.18;100.00;46652.59;5088417;28;20058;-73
2023/12/15 04:08:49;;;;;;;67.40;28.87;;;;;;;-145.18;100.00;46652.59;5078049;28;20024;-73
2023/12/15 04:11:16;;;;;;;75.30;28.37;;;;;;;-145.18;100.00;46656.50;5088886;28;20837;-73
2023/12/15 04:13:41;;;;;;;68.23;28.63;;;;;;;-145.18;100.00;46652.59;5095422;28;20119;-73
2023/12/15 04:16:07;;;;;;;63.27;25.43;;;;;;;-145.18;100.00;46656.50;5101640;28;20781;-74
2023/12/15 04:18:33;;;;;;;66.80;26.00;;;;;;;-145.18;100.00;46652.59;5082477;28;20063;-71
2023/12/15 04:20:59;;;;;;;69.63;27.27;;;;;;;-145.18;100.00;46654.53;5087212;28;20062;-73
2023/12/15 04:23:24;;;;;;;56.37;24.80;;;;;;;-145.18;100.00;46656.50;5075643;28;20032;-73
2023/12/15 04:25:50;;;;;;;61.27;25.97;;;;;;;-145.18;100.00;46654.53;5089044;28;20081;-73
2023/12/15 04:28:15;;;;;;;63.93;26.20;;;;;;;-145.18;100.00;46660.41;5076109;28;20051;-73
2023/12/15 04:30:40;;;;;;;68.27;26.37;;;;;;;-145.18;100.00;46656.50;5084068;28;20036;-74
2023/12/15 04:33:06;;;;;;;72.33;27.30;;;;;;;-145.18;100.00;46658.44;5086958;28;20059;-73
2023/12/15 04:35:31;;;;;;;61.10;25.93;;;;;;;-145.18;100.00;46654.53;5078338;28;20074;-73
2023/12/15 04:37:56;;;;;;;67.07;27.00;;;;;;;-145.18;100.00;46654.53;5092277;28;20030;-73
2023/12/15 04:40:22;;;;;;;62.47;26.53;;;;;;;-145.18;100.00;46654.53;5092697;28;20028;-73
2023/12/15 04:42:47;;;;;;;68.30;27.53;;;;;;;-145.18;100.00;46650.63;5079844;28;20491;-73
2023/12/15 04:45:13;;;;;;;65.60;27.00;;;;;;;-145.18;100.00;46656.50;5093241;28;20035;-73
2023/12/15 04:47:38;;;;;;;78.57;29.77;;;;;;;-145.18;100.00;46650.63;5086560;28;20069;-73
2023/12/15 04:50:04;;;;;;;69.67;29.53;;;;;;;-145.18;100.00;46652.59;5082563;28;20793;-74
2023/12/15 04:52:30;;;;;;;83.37;31.03;;;;;;;-145.18;100.00;46658.44;5089456;28;20093;-73
2023/12/15 04:54:55;;;;;;;75.13;29.93;;;;;;;-145.18;100.00;46654.53;5091220;28;20256;-73
2023/12/15 04:57:20;;;;;;;80.93;30.40;;;;;;;-145.18;100.00;46656.50;5088035;28;20111;-73
2023/12/15 04:59:46;;;;;;;77.27;29.73;;;;;;;-145.18;100.00;46656.50;5088542;28;20518;-74
2023/12/15 05:02:11;;;;;;;83.17;31.77;;;;;;;-145.18;100.00;46656.50;5085461;28;20070;-74
2023/12/15 05:04:38;;;;;;;72.93;31.17;;;;;;;-145.18;100.00;46654.53;5091295;28;20081;-73
2023/12/15 05:07:03;;;;;;;86.30;31.43;;;;;;;-145.18;100.00;46650.63;5090079;28;20024;-73
2023/12/15 05:09:29;;;;;;;86.33;31.70;;;;;;;-145.18;100.00;46652.59;5084649;28;20257;-70
2023/12/15 05:11:54;;;;;;;75.40;31.57;;;;;;;-145.18;100.00;46652.59;5085913;28;20043;-73
2023/12/15 05:14:20;;;;;;;71.60;31.57;;;;;;;-145.18;100.00;46654.53;5083383;28;20033;-71
2023/12/15 05:16:45;;;;;;;76.10;31.80;;;;;;;-145.18;100.00;46652.59;5087362;28;20031;-73
2023/12/15 05:19:11;;;;;;;85.37;32.13;;;;;;;-145.18;100.00;46652.59;5081676;28;20028;-73
2023/12/15 05:21:36;;;;;;;70.60;31.23;;;;;;;-145.18;100.00;46650.63;5082781;28;20031;-73
2023/12/15 05:24:02;;;;;;;77.33;31.80;;;;;;;-145.18;100.00;46648.69;5079681;28;20031;-73
2023/12/15 05:26:27;;;;;;;82.07;31.70;;;;;;;-145.18;100.00;46652.59;5092511;28;20039;-73
2023/12/15 05:28:52;;;;;;;77.70;30.80;;;;;;;-145.18;100.00;46658.44;5087108;28;20035;-74
2023/12/15 05:31:18;;;;;;;73.27;32.83;;;;;;;-145.18;100.00;46656.50;5086474;28;20918;-74
2023/12/15 05:33:44;;;;;;;72.07;29.80;;;;;;;-145.18;100.00;46652.59;5084060;28;20032;-73
2023/12/15 05:36:19;;;;;;;73.07;30.93;;;;;;;-145.18;100.00;46656.50;5087300;28;20035;-73
2023/12/15 05:38:46;;;;;;;74.03;30.33;;;;;;;-145.18;100.00;46652.59;5073959;28;20104;-73
2023/12/15 05:41:11;;;;;;;80.90;31.27;;;;;;;-145.18;100.00;46652.59;5084466;28;20477;-73
2023/12/15 05:43:37;;;;;;;71.83;28.93;;;;;;;-145.18;100.00;46654.53;5074758;28;20277;-74
2023/12/15 05:46:02;;;;;;;80.03;30.50;;;;;;;-145.18;100.00;46652.59;5076846;28;20073;-74
2023/12/15 05:48:28;;;;;;;73.47;33.37;;;;;;;-145.18;100.00;46654.53;5082163;28;20032;-74
2023/12/15 05:50:53;;;;;;;81.27;32.40;;;;;;;-145.18;100.00;46652.59;5083864;28;20032;-73
2023/12/15 05:53:18;;;;;;;67.67;30.07;;;;;;;-145.18;100.00;46654.53;5090986;28;20503;-74
2023/12/15 05:55:44;;;;;;;65.00;28.23;;;;;;;-145.18;100.00;46652.59;5081021;28;20036;-73
2023/12/15 05:58:10;;;;;;;76.10;30.47;;;;;;;-145.18;100.00;46654.53;5073184;28;20547;-74
2023/12/15 06:00:35;;;;;;;73.60;29.23;;;;;;;-145.18;100.00;46656.50;5083194;28;20392;-73
2023/12/15 06:03:00;;;;;;;64.63;26.77;;;;;;;-145.18;100.00;46652.59;5080816;28;20043;-74
2023/12/15 06:05:27;;;;;;;65.80;28.50;;;;;;;-145.18;100.00;46646.72;5087043;28;20035;-74
2023/12/15 06:07:53;;;;;;;67.17;28.17;;;;;;;-145.18;100.00;46652.59;5084214;28;20020;-75
2023/12/15 06:10:18;;;;;;;70.40;28.47;;;;;;;-145.18;100.00;46648.69;5101392;28;20288;-73
2023/12/15 06:12:44;;;;;;;71.10;29.30;;;;;;;-145.18;100.00;46656.50;5072403;28;20119;-73
2023/12/15 06:15:09;;;;;;;65.50;27.40;;;;;;;-145.18;100.00;46658.44;5080399;28;20032;-73
2023/12/15 06:17:35;;;;;;;67.47;27.87;;;;;;;-145.18;100.00;46656.50;5045345;28;1109861;-73
2023/12/15 06:20:00;;;;;;;62.70;26.83;;;;;;;-145.18;100.00;46652.59;5076882;28;20044;-73
2023/12/15 06:22:26;;;;;;;65.67;26.80;;;;;;;-145.18;100.00;46654.53;5086055;28;20024;-74
2023/12/15 06:24:51;;;;;;;65.97;28.13;;;;;;;-145.18;100.00;46650.63;5078828;28;20040;-73
2023/12/15 06:27:17;;;;;;;62.57;26.83;;;;;;;-145.18;100.00;46654.53;5083649;28;20413;-73
2023/12/15 06:29:42;;;;;;;57.00;27.63;;;;;;;-145.18;100.00;46658.44;5085937;28;20062;-73
2023/12/15 06:32:10;;;;;;;66.33;26.53;;;;;;;-145.18;100.00;46652.59;5075422;28;20040;-73
2023/12/15 06:34:36;;;;;;;62.70;26.73;;;;;;;-145.18;100.00;46660.41;5075760;28;20036;-67
2023/12/15 06:37:02;;;;;;;64.93;27.13;;;;;;;-145.18;100.00;46652.59;5062642;28;20259;-67
2023/12/15 06:39:27;;;;;;;54.00;26.10;;;;;;;-145.18;100.00;46660.41;5084669;28;20280;-67
2023/12/15 06:41:52;;;;;;;59.20;26.03;;;;;;;-145.18;100.00;46656.50;5082562;28;20058;-64
2023/12/15 06:44:18;;;;;;;56.23;24.43;;;;;;;-145.18;100.00;46656.50;5077755;28;20118;-67
2023/12/15 06:46:44;;;;;;;53.60;26.00;;;;;;;-145.18;100.00;46658.44;5079429;28;20422;-67
2023/12/15 06:49:09;;;;;;;55.60;24.80;;;;;;;-145.18;100.00;46656.50;5087494;28;20094;-67
2023/12/15 06:51:34;;;;;;;51.27;24.33;;;;;;;-145.18;100.00;46656.50;5086552;28;20035;-67
2023/12/15 06:54:00;;;;;;;53.97;24.87;;;;;;;-145.18;100.00;46658.44;5083126;28;20028;-67
2023/12/15 06:56:25;;;;;;;59.37;25.43;;;;;;;-145.18;100.00;46656.50;5083836;28;20075;-67
2023/12/15 06:58:51;;;;;;;49.27;23.77;;;;;;;-145.18;100.00;46660.41;5085534;28;20044;-67
2023/12/15 07:01:16;;;;;;;51.70;23.57;;;;;;;-145.18;100.00;46654.53;5077667;28;20119;-67
2023/12/15 07:03:41;;;;;;;52.67;24.43;;;;;;;-145.18;100.00;46660.41;5075283;28;20480;-67
2023/12/15 07:06:07;;;;;;;63.27;28.80;;;;;;;-145.18;100.00;46656.50;5082371;28;20028;-67
2023/12/15 07:08:32;;;;;;;70.17;30.67;;;;;;;-145.18;100.00;46660.41;5085915;28;20027;-67
2023/12/15 07:10:58;;;;;;;62.43;28.93;;;;;;;-145.18;100.00;46666.25;5074878;28;20043;-67
2023/12/15 07:13:23;;;;;;;57.30;24.27;;;;;;;-145.18;100.00;46654.53;5085745;28;20074;-67
2023/12/15 07:15:49;;;;;;;54.93;25.47;;;;;;;-145.18;100.00;46658.44;5079136;28;20040;-67
2023/12/15 07:18:14;;;;;;;52.33;23.20;;;;;;;-145.18;100.00;46656.50;5078086;28;20076;-67
2023/12/15 07:20:40;;;;;;;67.90;25.23;;;;;;;-145.18;100.00;46656.50;5077226;28;20047;-67
2023/12/15 07:23:05;;;;;;;50.23;22.70;;;;;;;-145.18;100.00;46662.34;5080155;28;20048;-67
2023/12/15 07:25:31;;;;;;;47.83;21.23;;;;;;;-145.18;100.00;46660.41;5075193;28;20040;-64
2023/12/15 07:27:57;;;;;;;48.00;21.60;;;;;;;-145.18;100.00;46658.44;5090136;28;20111;-65
2023/12/15 07:30:22;;;;;;;47.20;20.37;;;;;;;-145.18;100.00;46654.53;5079097;28;20028;-67
2023/12/15 07:32:47;;;;;;;43.93;20.73;;;;;;;-145.18;100.00;46656.50;5091931;28;20387;-67
2023/12/15 07:35:13;;;;;;;49.27;21.10;;;;;;;-145.18;100.00;46658.44;5092246;28;20506;-67
2023/12/15 07:37:38;;;;;;;57.67;22.10;;;;;;;-145.18;100.00;46654.53;5084720;28;20035;-67
2023/12/15 07:40:04;;;;;;;44.77;21.37;;;;;;;-145.18;100.00;46656.50;5074833;28;20111;-67
2023/12/15 07:42:30;;;;;;;52.27;20.30;;;;;;;-145.18;100.00;46654.53;5084533;28;20506;-67
2023/12/15 07:44:55;;;;;;;50.67;20.17;;;;;;;-145.18;100.00;46654.53;5078360;28;20040;-73
2023/12/15 07:47:21;;;;;;;45.43;20.60;;;;;;;-145.18;100.00;46654.53;5088464;28;20655;-74
2023/12/15 07:49:46;;;;;;;52.50;20.63;;;;;;;-145.18;100.00;46656.50;5091733;28;20028;-73
2023/12/15 07:52:11;;;;;;;46.67;20.23;;;;;;;-145.18;100.00;46658.44;5077799;28;20582;-73
2023/12/15 07:54:37;;;;;;;41.33;18.97;;;;;;;-145.18;100.00;46658.44;5082867;28;20033;-73
2023/12/15 07:57:02;;;;;;;46.13;19.07;;;;;;;-145.18;100.00;46652.59;5087394;28;20033;-73
2023/12/15 07:59:27;;;;;;;43.57;19.67;;;;;;;-145.18;100.00;46652.59;5076810;28;20062;-74
2023/12/15 08:01:55;;;;;;;39.37;18.33;;;;;;;-145.18;100.00;46654.53;5081813;28;20028;-74
2023/12/15 08:04:21;;;;;;;43.57;19.50;;;;;;;-145.18;100.00;46650.63;5079652;28;20032;-73
2023/12/15 08:06:46;;;;;;;49.77;19.70;;;;;;;-145.18;100.00;46658.44;5081417;28;20818;-73
2023/12/15 08:09:12;;;;;;;50.83;19.27;;;;;;;-145.18;100.00;46660.41;5087751;28;20039;-73
2023/12/15 08:11:37;;;;;;;57.67;17.20;;;;;;;-145.18;100.00;46660.41;5087763;28;20364;-73
2023/12/15 08:14:03;;;;;;;43.10;17.23;;;;;;;-145.18;100.00;46656.50;5074662;28;20499;-74
2023/12/15 08:16:31;;;;;;;49.70;17.43;;;;;;;-145.18;100.00;46660.41;5071258;28;20032;-73
2023/12/15 08:18:57;;;;;;;45.80;17.77;;;;;;;-145.18;100.00;46656.50;5075598;28;20656;-73
2023/12/15 08:21:23;;;;;;;46.03;17.57;;;;;;;-145.18;100.00;46658.44;5074688;28;20306;-74
2023/12/15 08:23:49;;;;;;;44.27;16.73;;;;;;;-145.18;100.00;46656.50;5091195;28;20740;-73
2023/12/15 08:26:23;;;;;;;43.17;17.40;;;;;;;-145.18;100.00;46654.53;5071596;28;20037;-73
2023/12/15 08:28:48;;;;;;;32.53;14.50;;;;;;;-145.18;100.00;46658.44;5074618;28;20510;-73
2023/12/15 08:31:14;;;;;;;43.23;15.90;;;;;;;-145.18;100.00;46660.41;5080049;28;20355;-74
2023/12/15 08:33:39;;;;;;;37.33;14.37;;;;;;;-145.18;100.00;46656.50;5079383;28;20028;-73
2023/12/15 08:36:05;;;;;;;35.57;13.70;;;;;;;-145.18;100.00;46664.31;5078970;28;20032;-74
2023/12/15 08:38:31;;;;;;;38.07;13.80;;;;;;;-145.18;100.00;46654.53;5090099;28;20059;-73
2023/12/15 08:40:56;;;;;;;32.40;12.90;;;;;;;-145.18;100.00;46658.44;5076961;28;20529;-73
2023/12/15 08:43:21;;;;;;;35.27;14.00;;;;;;;-145.18;100.00;46656.50;5086025;28;20073;-73
2023/12/15 08:45:47;;;;;;;33.10;14.17;;;;;;;-145.18;100.00;46660.41;5079424;28;20484;-73
2023/12/15 08:48:12;;;;;;;33.57;13.13;;;;;;;-145.18;100.00;46658.44;5082573;28;20028;-74
2023/12/15 08:50:37;;;;;;;36.03;13.50;;;;;;;-145.18;100.00;46660.41;5072228;28;20070;-73
2023/12/15 08:53:03;;;;;;;42.37;13.87;;;;;;;-145.18;100.00;46664.31;5084292;28;20024;-73
2023/12/15 08:55:28;;;;;;;36.17;13.00;;;;;;;-145.18;100.00;46658.44;5084752;28;20024;-73
2023/12/15 08:57:54;;;;;;;29.63;13.80;;;;;;;-145.18;100.00;46658.44;5084780;28;20032;-73
2023/12/15 09:00:19;;;;;;;32.07;14.40;;;;;;;-145.18;100.00;46666.25;5086723;28;20031;-73
2023/12/15 09:02:45;;;;;;;33.43;13.30;;;;;;;-145.18;100.00;46658.44;5080468;28;20032;-73
2023/12/15 09:05:11;;;;;;;30.27;13.00;;;;;;;-145.18;100.00;46662.34;5075961;28;20029;-73
2023/12/15 09:07:36;;;;;;;33.90;13.37;;;;;;;-145.18;100.00;46666.25;5088594;28;20020;-73
2023/12/15 09:10:02;;;;;;;40.73;14.33;;;;;;;-145.18;100.00;46666.25;5058457;28;20081;-73
2023/12/15 09:12:27;;;;;;;35.30;12.03;;;;;;;-145.18;100.00;46658.44;5083222;28;20048;-74
2023/12/15 09:14:53;;;;;;;34.57;14.07;;;;;;;-145.18;100.00;46660.41;5084704;28;20392;-73
2023/12/15 09:17:18;;;;;;;31.80;12.83;;;;;;;-145.18;100.00;46662.34;5083604;28;20060;-73
2023/12/15 09:19:43;;;;;;;37.50;13.90;;;;;;;-145.18;100.00;46666.25;5086001;28;20097;-73
2023/12/15 09:22:09;;;;;;;27.43;12.80;;;;;;;-145.18;100.00;46662.34;5074500;28;20021;-73
2023/12/15 09:24:34;;;;;;;32.00;12.30;;;;;;;-145.18;100.00;46668.22;5089731;28;20040;-73
2023/12/15 09:27:00;;;;;;;33.37;11.93;;;;;;;-145.18;100.00;46658.44;5080212;28;20031;-73
2023/12/15 09:29:25;;;;;;;35.80;11.83;;;;;;;-145.18;100.00;46664.31;5083515;28;20020;-73
2023/12/15 09:31:51;;;;;;;33.13;13.50;;;;;;;-145.18;100.00;46668.22;5080420;28;20024;-74
2023/12/15 09:34:17;;;;;;;47.33;12.87;;;;;;;-145.18;100.00;46660.41;5086243;28;20115;-73
2023/12/15 09:36:43;;;;;;;31.57;12.93;;;;;;;-145.18;100.00;46668.22;5076749;28;20115;-73
2023/12/15 09:39:08;;;;;;;33.37;12.30;;;;;;;-145.18;100.00;46670.16;5084798;28;20269;-73
2023/12/15 09:41:34;;;;;;;24.73;10.80;;;;;;;-145.18;100.00;46666.25;5084472;28;20032;-73
2023/12/15 09:44:00;;;;;;;33.17;11.77;;;;;;;-145.18;100.00;46672.13;5080636;28;20020;-73
2023/12/15 09:46:26;;;;;;;34.00;12.03;;;;;;;-145.18;100.00;46670.16;5075987;28;20500;-74
2023/12/15 09:48:52;;;;;;;30.57;10.97;;;;;;;-145.18;100.00;46664.31;5083156;28;20373;-73
2023/12/15 09:51:25;;;;;;;29.03;10.23;;;;;;;-145.18;100.00;46672.13;5080108;28;20282;-74
2023/12/15 09:53:51;;;;;;;28.63;10.70;;;;;;;-145.18;100.00;46676.03;5084900;28;20036;-74
2023/12/15 09:56:18;;;;;;;25.27;9.70;;;;;;;-145.18;100.00;46676.03;5084718;28;20252;-73
2023/12/15 09:58:44;;;;;;;25.73;11.20;;;;;;;-145.18;100.00;46674.06;5092917;28;20265;-73
2023/12/15 10:01:12;;;;;;;34.13;9.80;;;;;;;-145.18;100.00;46674.06;5087578;28;20249;-73
2023/12/15 10:03:39;;;;;;;30.93;9.27;;;;;;;-145.18;100.00;46672.13;5087671;28;20268;-67
2023/12/15 10:06:05;;;;;;;33.37;10.13;;;;;;;-145.18;100.00;46672.13;5086833;28;20264;-64
2023/12/15 10:08:42;;;;;;;27.40;9.17;;;;;;;-145.18;100.00;46685.78;5090992;28;20269;-67
2023/12/15 10:11:07;;;;;;;36.63;8.63;;;;;;;-145.18;100.00;46677.97;5077437;28;20346;-67
2023/12/15 10:13:33;;;;;;;31.90;10.03;;;;;;;-145.18;100.00;46679.94;5080246;28;20297;-67
2023/12/15 10:15:58;;;;;;;27.03;8.33;;;;;;;-145.18;100.00;46681.88;5084197;28;20111;-67
2023/12/15 10:18:24;;;;;;;29.00;9.77;;;;;;;-145.18;100.00;46677.97;5079366;28;20392;-67
2023/12/15 10:20:49;;;;;;;33.67;8.83;;;;;;;-145.18;100.00;46685.78;5079769;28;20115;-67
2023/12/15 10:23:15;;;;;;;21.97;6.37;;;;;;;-145.18;100.00;46691.66;5080674;28;20036;-67
2023/12/15 10:25:47;;;;;;;23.97;7.27;;;;;;;-145.18;100.00;46689.69;5085008;28;20027;-66
2023/12/15 10:28:15;;;;;;;25.07;7.80;;;;;;;-145.18;100.00;46689.69;5077644;28;20024;-67
2023/12/15 10:30:40;;;;;;;25.70;6.97;;;;;;;-145.18;100.00;46689.69;5085373;28;20309;-67
2023/12/15 10:33:06;;;;;;;29.10;8.03;;;;;;;-145.18;100.00;46687.75;5082578;28;20261;-67
2023/12/15 10:35:32;;;;;;;17.40;6.30;;;;;;;-145.18;100.00;46687.75;5077026;28;20149;-67
2023/12/15 10:37:58;;;;;;;19.97;6.00;;;;;;;-145.18;100.00;46691.66;5078676;28;20510;-67
2023/12/15 10:40:25;;;;;;;23.83;6.17;;;;;;;-145.18;100.00;46691.66;5081631;28;20364;-67
2023/12/15 10:42:51;;;;;;;24.83;6.37;;;;;;;-145.18;100.00;46697.50;5093832;28;20641;-67
2023/12/15 10:45:18;;;;;;;16.97;5.30;;;;;;;-145.18;100.00;46693.59;5083221;28;20280;-67
2023/12/15 10:47:45;;;;;;;20.77;5.23;;;;;;;-145.18;100.00;46695.56;5076121;28;20076;-67